sensor_id;sensor_type;location;lat;lon;timestamp;P1;durP1;ratioP1;P2;durP2;ratioP2
76117;SDS011;64851;50.232;20.364;2024-01-07T00:00:35;3.50;;;1.70;;
76117;SDS011;64851;50.232;20.364;2024-01-07T00:03:51;3.00;;;1.60;;
76117;SDS011;64851;50.232;20.364;2024-01-07T00:06:26;7.80;;;2.50;;
76117;SDS011;64851;50.232;20.364;2024-01-07T00:09:22;4.60;;;1.90;;
76117;SDS011;64851;50.232;20.364;2024-01-07T00:12:17;5.70;;;2.60;;
76117;SDS011;64851;50.232;20.364;2024-01-07T00:15:13;8.20;;;2.50;;
76117;SDS011;64851;50.232;20.364;2024-01-07T00:17:47;4.70;;;1.90;;
76117;SDS011;64851;50.232;20.364;2024-01-07T00:20:43;3.40;;;1.70;;
76117;SDS011;64851;50.232;20.364;2024-01-07T00:23:18;6.10;;;2.50;;
76117;SDS011;64851;50.232;20.364;2024-01-07T00:26:06;6.80;;;2.40;;
76117;SDS011;64851;50.232;20.364;2024-01-07T00:28:48;4.80;;;1.80;;
76117;SDS011;64851;50.232;20.364;2024-01-07T00:34:10;3.60;;;1.60;;
76117;SDS011;64851;50.232;20.364;2024-01-07T00:36:58;6.10;;;3.00;;
76117;SDS011;64851;50.232;20.364;2024-01-07T00:39:39;3.80;;;1.60;;
76117;SDS011;64851;50.232;20.364;2024-01-07T00:42:27;6.00;;;2.70;;
76117;SDS011;64851;50.232;20.364;2024-01-07T00:45:01;4.60;;;1.90;;
76117;SDS011;64851;50.232;20.364;2024-01-07T00:47:50;5.70;;;2.00;;
76117;SDS011;64851;50.232;20.364;2024-01-07T00:50:25;4.80;;;1.80;;
76117;SDS011;64851;50.232;20.364;2024-01-07T00:53:19;4.20;;;1.40;;
76117;SDS011;64851;50.232;20.364;2024-01-07T00:56:15;5.70;;;2.40;;
76117;SDS011;64851;50.232;20.364;2024-01-07T00:59:10;7.10;;;2.60;;
76117;SDS011;64851;50.232;20.364;2024-01-07T01:01:45;4.30;;;1.40;;
76117;SDS011;64851;50.232;20.364;2024-01-07T01:04:33;3.80;;;1.40;;
76117;SDS011;64851;50.232;20.364;2024-01-07T01:07:08;4.20;;;1.40;;
76117;SDS011;64851;50.232;20.364;2024-01-07T01:09:56;4.60;;;2.00;;
76117;SDS011;64851;50.232;20.364;2024-01-07T01:12:31;4.10;;;1.80;;
76117;SDS011;64851;50.232;20.364;2024-01-07T01:15:20;5.70;;;1.60;;
76117;SDS011;64851;50.232;20.364;2024-01-07T01:17:55;4.60;;;2.00;;
76117;SDS011;64851;50.232;20.364;2024-01-07T01:20:45;5.70;;;1.90;;
76117;SDS011;64851;50.232;20.364;2024-01-07T01:23:20;2.90;;;1.40;;
76117;SDS011;64851;50.232;20.364;2024-01-07T01:26:08;2.00;;;0.60;;
76117;SDS011;64851;50.232;20.364;2024-01-07T01:28:43;2.90;;;1.60;;
76117;SDS011;64851;50.232;20.364;2024-01-07T01:31:30;5.00;;;1.50;;
76117;SDS011;64851;50.232;20.364;2024-01-07T01:34:05;4.30;;;1.40;;
76117;SDS011;64851;50.232;20.364;2024-01-07T01:36:54;5.20;;;2.20;;
76117;SDS011;64851;50.232;20.364;2024-01-07T01:39:36;5.80;;;1.80;;
76117;SDS011;64851;50.232;20.364;2024-01-07T01:42:22;3.90;;;1.00;;
76117;SDS011;64851;50.232;20.364;2024-01-07T01:45:03;3.90;;;1.50;;
76117;SDS011;64851;50.232;20.364;2024-01-07T01:47:45;5.00;;;1.90;;
76117;SDS011;64851;50.232;20.364;2024-01-07T01:50:27;3.70;;;1.70;;
76117;SDS011;64851;50.232;20.364;2024-01-07T01:53:15;3.30;;;1.10;;
76117;SDS011;64851;50.232;20.364;2024-01-07T01:55:50;5.20;;;1.40;;
76117;SDS011;64851;50.232;20.364;2024-01-07T01:58:45;4.20;;;1.70;;
76117;SDS011;64851;50.232;20.364;2024-01-07T02:01:41;3.10;;;1.20;;
76117;SDS011;64851;50.232;20.364;2024-01-07T02:04:16;5.30;;;1.70;;
76117;SDS011;64851;50.232;20.364;2024-01-07T02:07:11;3.00;;;1.40;;
76117;SDS011;64851;50.232;20.364;2024-01-07T02:10:06;2.70;;;0.90;;
76117;SDS011;64851;50.232;20.364;2024-01-07T02:12:41;3.10;;;1.10;;
76117;SDS011;64851;50.232;20.364;2024-01-07T02:15:31;3.20;;;1.60;;
76117;SDS011;64851;50.232;20.364;2024-01-07T02:18:07;2.20;;;1.00;;
76117;SDS011;64851;50.232;20.364;2024-01-07T02:20:56;4.30;;;1.60;;
76117;SDS011;64851;50.232;20.364;2024-01-07T02:23:32;2.90;;;1.20;;
76117;SDS011;64851;50.232;20.364;2024-01-07T02:26:20;4.10;;;1.70;;
76117;SDS011;64851;50.232;20.364;2024-01-07T02:28:57;2.00;;;0.90;;
76117;SDS011;64851;50.232;20.364;2024-01-07T02:31:44;2.40;;;0.80;;
76117;SDS011;64851;50.232;20.364;2024-01-07T02:34:20;3.40;;;0.90;;
76117;SDS011;64851;50.232;20.364;2024-01-07T02:37:07;3.10;;;1.10;;
76117;SDS011;64851;50.232;20.364;2024-01-07T02:39:42;3.80;;;0.90;;
76117;SDS011;64851;50.232;20.364;2024-01-07T02:42:40;4.00;;;1.20;;
76117;SDS011;64851;50.232;20.364;2024-01-07T02:45:15;4.20;;;1.60;;
76117;SDS011;64851;50.232;20.364;2024-01-07T02:48:10;3.20;;;1.00;;
76117;SDS011;64851;50.232;20.364;2024-01-07T02:51:06;2.50;;;0.80;;
76117;SDS011;64851;50.232;20.364;2024-01-07T02:53:42;2.60;;;0.90;;
76117;SDS011;64851;50.232;20.364;2024-01-07T02:56:30;2.50;;;0.90;;
76117;SDS011;64851;50.232;20.364;2024-01-07T02:59:25;3.50;;;1.20;;
76117;SDS011;64851;50.232;20.364;2024-01-07T03:02:20;2.20;;;0.90;;
76117;SDS011;64851;50.232;20.364;2024-01-07T03:04:57;2.40;;;1.40;;
76117;SDS011;64851;50.232;20.364;2024-01-07T03:07:44;3.10;;;0.90;;
76117;SDS011;64851;50.232;20.364;2024-01-07T03:10:20;4.10;;;1.30;;
76117;SDS011;64851;50.232;20.364;2024-01-07T03:13:07;3.50;;;1.60;;
76117;SDS011;64851;50.232;20.364;2024-01-07T03:15:43;2.90;;;1.20;;
76117;SDS011;64851;50.232;20.364;2024-01-07T03:18:37;4.90;;;1.60;;
76117;SDS011;64851;50.232;20.364;2024-01-07T03:21:33;2.60;;;0.80;;
76117;SDS011;64851;50.232;20.364;2024-01-07T03:24:09;2.00;;;0.90;;
76117;SDS011;64851;50.232;20.364;2024-01-07T03:26:58;3.40;;;1.00;;
76117;SDS011;64851;50.232;20.364;2024-01-07T03:29:34;5.50;;;1.30;;
76117;SDS011;64851;50.232;20.364;2024-01-07T03:32:22;3.10;;;1.40;;
76117;SDS011;64851;50.232;20.364;2024-01-07T03:34:58;1.90;;;0.80;;
76117;SDS011;64851;50.232;20.364;2024-01-07T03:37:46;3.10;;;0.90;;
76117;SDS011;64851;50.232;20.364;2024-01-07T03:40:22;1.90;;;0.70;;
76117;SDS011;64851;50.232;20.364;2024-01-07T03:43:10;3.30;;;0.90;;
76117;SDS011;64851;50.232;20.364;2024-01-07T03:45:45;1.00;;;0.40;;
76117;SDS011;64851;50.232;20.364;2024-01-07T03:48:41;2.60;;;0.80;;
76117;SDS011;64851;50.232;20.364;2024-01-07T03:51:17;2.10;;;1.00;;
76117;SDS011;64851;50.232;20.364;2024-01-07T03:54:05;2.90;;;0.90;;
76117;SDS011;64851;50.232;20.364;2024-01-07T03:56:41;2.40;;;0.80;;
76117;SDS011;64851;50.232;20.364;2024-01-07T03:59:35;2.30;;;0.70;;
76117;SDS011;64851;50.232;20.364;2024-01-07T04:02:11;3.50;;;0.90;;
76117;SDS011;64851;50.232;20.364;2024-01-07T04:04:59;2.70;;;1.10;;
76117;SDS011;64851;50.232;20.364;2024-01-07T04:07:41;2.30;;;0.70;;
76117;SDS011;64851;50.232;20.364;2024-01-07T04:13:04;3.00;;;0.80;;
76117;SDS011;64851;50.232;20.364;2024-01-07T04:18:27;3.20;;;1.00;;
76117;SDS011;64851;50.232;20.364;2024-01-07T04:21:09;4.20;;;0.90;;
76117;SDS011;64851;50.232;20.364;2024-01-07T04:23:51;1.30;;;0.50;;
76117;SDS011;64851;50.232;20.364;2024-01-07T04:29:13;4.70;;;1.00;;
76117;SDS011;64851;50.232;20.364;2024-01-07T04:32:02;3.20;;;1.30;;
76117;SDS011;64851;50.232;20.364;2024-01-07T04:34:37;3.10;;;0.60;;
76117;SDS011;64851;50.232;20.364;2024-01-07T04:37:24;1.70;;;0.70;;
76117;SDS011;64851;50.232;20.364;2024-01-07T04:40:01;4.40;;;1.20;;
76117;SDS011;64851;50.232;20.364;2024-01-07T04:42:48;3.50;;;0.60;;
76117;SDS011;64851;50.232;20.364;2024-01-07T04:45:30;2.10;;;0.70;;
76117;SDS011;64851;50.232;20.364;2024-01-07T04:48:11;2.70;;;0.90;;
76117;SDS011;64851;50.232;20.364;2024-01-07T04:50:53;2.30;;;1.10;;
76117;SDS011;64851;50.232;20.364;2024-01-07T04:53:34;3.60;;;1.10;;
76117;SDS011;64851;50.232;20.364;2024-01-07T04:56:21;2.50;;;0.50;;
76117;SDS011;64851;50.232;20.364;2024-01-07T04:59:16;2.10;;;1.10;;
76117;SDS011;64851;50.232;20.364;2024-01-07T05:02:12;3.90;;;1.30;;
76117;SDS011;64851;50.232;20.364;2024-01-07T05:04:46;3.00;;;0.90;;
76117;SDS011;64851;50.232;20.364;2024-01-07T05:07:34;1.80;;;0.80;;
76117;SDS011;64851;50.232;20.364;2024-01-07T05:10:11;3.50;;;1.00;;
76117;SDS011;64851;50.232;20.364;2024-01-07T05:12:59;4.20;;;0.70;;
76117;SDS011;64851;50.232;20.364;2024-01-07T05:15:39;4.10;;;1.60;;
76117;SDS011;64851;50.232;20.364;2024-01-07T05:18:40;2.60;;;1.00;;
76117;SDS011;64851;50.232;20.364;2024-01-07T05:21:22;3.50;;;1.00;;
76117;SDS011;64851;50.232;20.364;2024-01-07T05:24:04;4.50;;;1.10;;
76117;SDS011;64851;50.232;20.364;2024-01-07T05:26:45;2.50;;;0.70;;
76117;SDS011;64851;50.232;20.364;2024-01-07T05:29:27;2.90;;;1.10;;
76117;SDS011;64851;50.232;20.364;2024-01-07T05:32:09;5.00;;;1.10;;
76117;SDS011;64851;50.232;20.364;2024-01-07T05:37:31;2.10;;;0.90;;
76117;SDS011;64851;50.232;20.364;2024-01-07T05:42:54;3.70;;;0.90;;
76117;SDS011;64851;50.232;20.364;2024-01-07T05:45:35;1.70;;;0.90;;
76117;SDS011;64851;50.232;20.364;2024-01-07T05:48:18;3.20;;;1.70;;
76117;SDS011;64851;50.232;20.364;2024-01-07T05:51:04;3.60;;;1.00;;
76117;SDS011;64851;50.232;20.364;2024-01-07T05:53:45;2.70;;;0.60;;
76117;SDS011;64851;50.232;20.364;2024-01-07T05:56:40;1.60;;;0.50;;
76117;SDS011;64851;50.232;20.364;2024-01-07T05:59:16;1.30;;;0.40;;
76117;SDS011;64851;50.232;20.364;2024-01-07T06:02:03;1.60;;;0.70;;
76117;SDS011;64851;50.232;20.364;2024-01-07T06:04:39;2.50;;;0.60;;
76117;SDS011;64851;50.232;20.364;2024-01-07T06:07:29;3.70;;;1.30;;
76117;SDS011;64851;50.232;20.364;2024-01-07T06:10:05;2.50;;;1.00;;
76117;SDS011;64851;50.232;20.364;2024-01-07T06:12:52;1.70;;;0.80;;
76117;SDS011;64851;50.232;20.364;2024-01-07T06:15:28;3.00;;;0.80;;
76117;SDS011;64851;50.232;20.364;2024-01-07T06:18:17;4.10;;;1.00;;
76117;SDS011;64851;50.232;20.364;2024-01-07T06:20:53;2.70;;;0.80;;
76117;SDS011;64851;50.232;20.364;2024-01-07T06:23:40;1.10;;;0.30;;
76117;SDS011;64851;50.232;20.364;2024-01-07T06:26:15;2.30;;;0.90;;
76117;SDS011;64851;50.232;20.364;2024-01-07T06:29:02;3.90;;;1.10;;
76117;SDS011;64851;50.232;20.364;2024-01-07T06:31:44;3.20;;;0.80;;
76117;SDS011;64851;50.232;20.364;2024-01-07T06:34:32;3.20;;;0.80;;
76117;SDS011;64851;50.232;20.364;2024-01-07T06:37:08;2.40;;;0.80;;
76117;SDS011;64851;50.232;20.364;2024-01-07T06:39:56;4.20;;;1.50;;
76117;SDS011;64851;50.232;20.364;2024-01-07T06:42:32;3.10;;;1.10;;
76117;SDS011;64851;50.232;20.364;2024-01-07T06:45:19;2.80;;;0.60;;
76117;SDS011;64851;50.232;20.364;2024-01-07T06:48:01;2.20;;;0.60;;
76117;SDS011;64851;50.232;20.364;2024-01-07T06:50:42;3.80;;;1.20;;
76117;SDS011;64851;50.232;20.364;2024-01-07T06:53:24;2.90;;;0.70;;
76117;SDS011;64851;50.232;20.364;2024-01-07T06:56:12;3.40;;;0.70;;
76117;SDS011;64851;50.232;20.364;2024-01-07T06:59:07;2.10;;;0.80;;
76117;SDS011;64851;50.232;20.364;2024-01-07T07:01:42;2.20;;;1.00;;
76117;SDS011;64851;50.232;20.364;2024-01-07T07:04:37;2.30;;;0.60;;
76117;SDS011;64851;50.232;20.364;2024-01-07T07:07:12;2.80;;;0.90;;
76117;SDS011;64851;50.232;20.364;2024-01-07T07:10:00;3.50;;;1.20;;
76117;SDS011;64851;50.232;20.364;2024-01-07T07:12:35;2.10;;;0.70;;
76117;SDS011;64851;50.232;20.364;2024-01-07T07:15:23;4.00;;;1.10;;
76117;SDS011;64851;50.232;20.364;2024-01-07T07:18:00;2.70;;;0.80;;
76117;SDS011;64851;50.232;20.364;2024-01-07T07:20:55;2.90;;;0.90;;
76117;SDS011;64851;50.232;20.364;2024-01-07T07:23:50;3.40;;;1.10;;
76117;SDS011;64851;50.232;20.364;2024-01-07T07:26:25;4.20;;;1.70;;
76117;SDS011;64851;50.232;20.364;2024-01-07T07:29:16;3.00;;;1.10;;
76117;SDS011;64851;50.232;20.364;2024-01-07T07:31:51;3.80;;;1.80;;
76117;SDS011;64851;50.232;20.364;2024-01-07T07:34:40;2.70;;;1.10;;
76117;SDS011;64851;50.232;20.364;2024-01-07T07:37:15;7.10;;;2.80;;
76117;SDS011;64851;50.232;20.364;2024-01-07T07:40:11;6.90;;;3.30;;
76117;SDS011;64851;50.232;20.364;2024-01-07T07:43:06;4.60;;;1.60;;
76117;SDS011;64851;50.232;20.364;2024-01-07T07:45:41;2.90;;;1.20;;
76117;SDS011;64851;50.232;20.364;2024-01-07T07:48:29;5.20;;;1.10;;
76117;SDS011;64851;50.232;20.364;2024-01-07T07:51:04;4.40;;;1.60;;
76117;SDS011;64851;50.232;20.364;2024-01-07T07:53:52;4.30;;;1.90;;
76117;SDS011;64851;50.232;20.364;2024-01-07T07:56:28;4.10;;;1.00;;
76117;SDS011;64851;50.232;20.364;2024-01-07T07:59:23;3.60;;;1.40;;
76117;SDS011;64851;50.232;20.364;2024-01-07T08:02:18;4.30;;;1.60;;
76117;SDS011;64851;50.232;20.364;2024-01-07T08:04:53;2.30;;;1.00;;
76117;SDS011;64851;50.232;20.364;2024-01-07T08:07:41;6.80;;;1.90;;
76117;SDS011;64851;50.232;20.364;2024-01-07T08:10:16;4.70;;;1.10;;
76117;SDS011;64851;50.232;20.364;2024-01-07T08:13:04;4.00;;;1.10;;
76117;SDS011;64851;50.232;20.364;2024-01-07T08:15:48;5.70;;;1.90;;
76117;SDS011;64851;50.232;20.364;2024-01-07T08:18:35;4.70;;;1.50;;
76117;SDS011;64851;50.232;20.364;2024-01-07T08:21:11;3.30;;;1.20;;
76117;SDS011;64851;50.232;20.364;2024-01-07T08:23:58;6.90;;;2.30;;
76117;SDS011;64851;50.232;20.364;2024-01-07T08:26:34;4.70;;;1.40;;
76117;SDS011;64851;50.232;20.364;2024-01-07T08:29:21;3.70;;;1.40;;
76117;SDS011;64851;50.232;20.364;2024-01-07T08:34:43;3.70;;;1.80;;
76117;SDS011;64851;50.232;20.364;2024-01-07T08:37:19;3.90;;;1.30;;
76117;SDS011;64851;50.232;20.364;2024-01-07T08:40:09;3.90;;;1.60;;
76117;SDS011;64851;50.232;20.364;2024-01-07T08:42:51;4.30;;;1.50;;
76117;SDS011;64851;50.232;20.364;2024-01-07T08:45:33;5.00;;;1.70;;
76117;SDS011;64851;50.232;20.364;2024-01-07T08:48:15;4.10;;;1.80;;
76117;SDS011;64851;50.232;20.364;2024-01-07T08:51:04;4.40;;;1.40;;
76117;SDS011;64851;50.232;20.364;2024-01-07T08:53:39;3.80;;;1.40;;
76117;SDS011;64851;50.232;20.364;2024-01-07T08:56:27;2.50;;;1.10;;
76117;SDS011;64851;50.232;20.364;2024-01-07T08:59:11;3.00;;;1.40;;
76117;SDS011;64851;50.232;20.364;2024-01-07T09:04:34;5.80;;;1.90;;
76117;SDS011;64851;50.232;20.364;2024-01-07T09:09:50;4.70;;;1.80;;
76117;SDS011;64851;50.232;20.364;2024-01-07T09:12:41;4.30;;;1.50;;
76117;SDS011;64851;50.232;20.364;2024-01-07T09:15:23;4.90;;;1.80;;
76117;SDS011;64851;50.232;20.364;2024-01-07T09:18:10;4.30;;;1.80;;
76117;SDS011;64851;50.232;20.364;2024-01-07T09:20:46;3.90;;;1.70;;
76117;SDS011;64851;50.232;20.364;2024-01-07T09:23:33;4.80;;;1.60;;
76117;SDS011;64851;50.232;20.364;2024-01-07T09:26:10;5.60;;;2.00;;
76117;SDS011;64851;50.232;20.364;2024-01-07T09:28:57;6.90;;;2.30;;
76117;SDS011;64851;50.232;20.364;2024-01-07T09:31:33;4.00;;;2.10;;
76117;SDS011;64851;50.232;20.364;2024-01-07T09:34:21;10.00;;;2.90;;
76117;SDS011;64851;50.232;20.364;2024-01-07T09:37:03;5.70;;;2.20;;
76117;SDS011;64851;50.232;20.364;2024-01-07T09:39:45;4.80;;;2.10;;
76117;SDS011;64851;50.232;20.364;2024-01-07T09:42:27;5.10;;;2.30;;
76117;SDS011;64851;50.232;20.364;2024-01-07T09:45:09;5.70;;;2.70;;
76117;SDS011;64851;50.232;20.364;2024-01-07T09:50:36;6.70;;;2.60;;
76117;SDS011;64851;50.232;20.364;2024-01-07T09:53:20;6.80;;;3.00;;
76117;SDS011;64851;50.232;20.364;2024-01-07T09:56:11;7.50;;;3.30;;
76117;SDS011;64851;50.232;20.364;2024-01-07T09:58:56;4.90;;;2.20;;
76117;SDS011;64851;50.232;20.364;2024-01-07T10:01:38;5.20;;;2.00;;
76117;SDS011;64851;50.232;20.364;2024-01-07T10:04:27;6.70;;;2.30;;
76117;SDS011;64851;50.232;20.364;2024-01-07T10:07:09;6.40;;;2.10;;
76117;SDS011;64851;50.232;20.364;2024-01-07T10:09:51;4.70;;;1.70;;
76117;SDS011;64851;50.232;20.364;2024-01-07T10:12:38;4.40;;;1.90;;
76117;SDS011;64851;50.232;20.364;2024-01-07T10:18:04;6.60;;;2.80;;
76117;SDS011;64851;50.232;20.364;2024-01-07T10:20:42;5.20;;;2.00;;
76117;SDS011;64851;50.232;20.364;2024-01-07T10:23:29;5.70;;;2.20;;
76117;SDS011;64851;50.232;20.364;2024-01-07T10:26:11;5.60;;;2.00;;
76117;SDS011;64851;50.232;20.364;2024-01-07T10:31:40;5.80;;;2.80;;
76117;SDS011;64851;50.232;20.364;2024-01-07T10:34:29;7.30;;;2.30;;
76117;SDS011;64851;50.232;20.364;2024-01-07T10:37:07;8.90;;;3.40;;
76117;SDS011;64851;50.232;20.364;2024-01-07T10:39:56;6.30;;;2.40;;
76117;SDS011;64851;50.232;20.364;2024-01-07T10:42:35;5.70;;;2.50;;
76117;SDS011;64851;50.232;20.364;2024-01-07T10:45:23;7.00;;;3.30;;
76117;SDS011;64851;50.232;20.364;2024-01-07T10:47:59;7.60;;;3.50;;
76117;SDS011;64851;50.232;20.364;2024-01-07T10:50:47;7.70;;;3.00;;
76117;SDS011;64851;50.232;20.364;2024-01-07T10:53:27;5.80;;;2.60;;
76117;SDS011;64851;50.232;20.364;2024-01-07T10:56:22;7.60;;;3.60;;
76117;SDS011;64851;50.232;20.364;2024-01-07T10:59:05;5.00;;;1.80;;
76117;SDS011;64851;50.232;20.364;2024-01-07T11:01:52;9.20;;;3.70;;
76117;SDS011;64851;50.232;20.364;2024-01-07T11:04:51;8.10;;;3.80;;
76117;SDS011;64851;50.232;20.364;2024-01-07T11:08:19;8.90;;;3.30;;
76117;SDS011;64851;50.232;20.364;2024-01-07T11:11:18;9.40;;;4.50;;
76117;SDS011;64851;50.232;20.364;2024-01-07T11:14:33;10.20;;;4.30;;
76117;SDS011;64851;50.232;20.364;2024-01-07T11:17:18;6.70;;;2.60;;
76117;SDS011;64851;50.232;20.364;2024-01-07T11:20:21;8.10;;;3.40;;
76117;SDS011;64851;50.232;20.364;2024-01-07T11:26:10;7.10;;;3.00;;
76117;SDS011;64851;50.232;20.364;2024-01-07T11:28:53;5.80;;;2.30;;
76117;SDS011;64851;50.232;20.364;2024-01-07T11:31:44;6.20;;;2.90;;
76117;SDS011;64851;50.232;20.364;2024-01-07T11:37:30;6.00;;;2.60;;
76117;SDS011;64851;50.232;20.364;2024-01-07T11:40:12;9.10;;;4.10;;
76117;SDS011;64851;50.232;20.364;2024-01-07T11:42:57;9.60;;;3.30;;
76117;SDS011;64851;50.232;20.364;2024-01-07T11:45:40;20.30;;;7.00;;
76117;SDS011;64851;50.232;20.364;2024-01-07T11:48:21;7.60;;;3.30;;
76117;SDS011;64851;50.232;20.364;2024-01-07T11:51:03;5.80;;;2.00;;
76117;SDS011;64851;50.232;20.364;2024-01-07T11:53:46;20.80;;;8.40;;
76117;SDS011;64851;50.232;20.364;2024-01-07T11:56:39;12.50;;;6.70;;
76117;SDS011;64851;50.232;20.364;2024-01-07T11:59:36;7.80;;;3.70;;
76117;SDS011;64851;50.232;20.364;2024-01-07T12:02:12;8.60;;;3.80;;
76117;SDS011;64851;50.232;20.364;2024-01-07T12:05:00;7.60;;;3.70;;
76117;SDS011;64851;50.232;20.364;2024-01-07T12:07:36;7.70;;;3.60;;
76117;SDS011;64851;50.232;20.364;2024-01-07T12:10:31;9.20;;;3.90;;
76117;SDS011;64851;50.232;20.364;2024-01-07T12:13:14;7.50;;;3.30;;
76117;SDS011;64851;50.232;20.364;2024-01-07T12:15:56;9.40;;;3.70;;
76117;SDS011;64851;50.232;20.364;2024-01-07T12:18:42;7.30;;;2.80;;
76117;SDS011;64851;50.232;20.364;2024-01-07T12:21:33;7.50;;;2.90;;
76117;SDS011;64851;50.232;20.364;2024-01-07T12:24:16;6.70;;;3.10;;
76117;SDS011;64851;50.232;20.364;2024-01-07T12:27:06;7.70;;;3.30;;
76117;SDS011;64851;50.232;20.364;2024-01-07T12:29:43;7.30;;;4.10;;
76117;SDS011;64851;50.232;20.364;2024-01-07T12:32:31;7.00;;;3.50;;
76117;SDS011;64851;50.232;20.364;2024-01-07T12:35:14;6.50;;;2.90;;
76117;SDS011;64851;50.232;20.364;2024-01-07T12:37:59;7.10;;;3.90;;
76117;SDS011;64851;50.232;20.364;2024-01-07T12:40:40;10.00;;;3.80;;
76117;SDS011;64851;50.232;20.364;2024-01-07T12:43:20;8.60;;;3.90;;
76117;SDS011;64851;50.232;20.364;2024-01-07T12:46:03;10.40;;;3.70;;
76117;SDS011;64851;50.232;20.364;2024-01-07T12:48:51;7.80;;;3.40;;
76117;SDS011;64851;50.232;20.364;2024-01-07T12:51:26;6.90;;;3.10;;
76117;SDS011;64851;50.232;20.364;2024-01-07T12:54:13;4.50;;;2.40;;
76117;SDS011;64851;50.232;20.364;2024-01-07T12:56:48;6.80;;;3.20;;
76117;SDS011;64851;50.232;20.364;2024-01-07T12:59:42;8.80;;;4.50;;
76117;SDS011;64851;50.232;20.364;2024-01-07T13:02:24;11.80;;;4.50;;
76117;SDS011;64851;50.232;20.364;2024-01-07T13:05:12;9.20;;;5.30;;
76117;SDS011;64851;50.232;20.364;2024-01-07T13:07:49;5.80;;;3.00;;
76117;SDS011;64851;50.232;20.364;2024-01-07T13:10:36;9.60;;;4.50;;
76117;SDS011;64851;50.232;20.364;2024-01-07T13:13:11;10.70;;;4.70;;
76117;SDS011;64851;50.232;20.364;2024-01-07T13:16:00;9.00;;;3.10;;
76117;SDS011;64851;50.232;20.364;2024-01-07T13:18:37;12.30;;;4.30;;
76117;SDS011;64851;50.232;20.364;2024-01-07T13:21:26;7.30;;;3.20;;
76117;SDS011;64851;50.232;20.364;2024-01-07T13:24:02;5.50;;;2.30;;
76117;SDS011;64851;50.232;20.364;2024-01-07T13:26:49;8.10;;;3.90;;
76117;SDS011;64851;50.232;20.364;2024-01-07T13:29:25;7.40;;;3.90;;
76117;SDS011;64851;50.232;20.364;2024-01-07T13:32:13;6.40;;;3.00;;
76117;SDS011;64851;50.232;20.364;2024-01-07T13:35:01;14.60;;;5.40;;
76117;SDS011;64851;50.232;20.364;2024-01-07T13:37:53;10.70;;;4.10;;
76117;SDS011;64851;50.232;20.364;2024-01-07T13:40:28;7.90;;;3.40;;
76117;SDS011;64851;50.232;20.364;2024-01-07T13:43:23;12.90;;;3.90;;
76117;SDS011;64851;50.232;20.364;2024-01-07T13:46:19;6.10;;;2.90;;
76117;SDS011;64851;50.232;20.364;2024-01-07T13:48:58;8.90;;;3.20;;
76117;SDS011;64851;50.232;20.364;2024-01-07T13:51:54;9.80;;;4.10;;
76117;SDS011;64851;50.232;20.364;2024-01-07T13:54:53;10.60;;;5.10;;
76117;SDS011;64851;50.232;20.364;2024-01-07T13:57:28;9.50;;;5.00;;
76117;SDS011;64851;50.232;20.364;2024-01-07T14:00:23;9.70;;;3.50;;
76117;SDS011;64851;50.232;20.364;2024-01-07T14:03:18;8.40;;;4.50;;
76117;SDS011;64851;50.232;20.364;2024-01-07T14:05:54;7.00;;;3.60;;
76117;SDS011;64851;50.232;20.364;2024-01-07T14:08:49;9.80;;;4.70;;
76117;SDS011;64851;50.232;20.364;2024-01-07T14:11:24;9.40;;;4.50;;
76117;SDS011;64851;50.232;20.364;2024-01-07T14:14:12;7.30;;;3.80;;
76117;SDS011;64851;50.232;20.364;2024-01-07T14:16:47;7.20;;;3.80;;
76117;SDS011;64851;50.232;20.364;2024-01-07T14:19:35;9.20;;;4.00;;
76117;SDS011;64851;50.232;20.364;2024-01-07T14:22:11;5.60;;;2.90;;
76117;SDS011;64851;50.232;20.364;2024-01-07T14:24:59;10.20;;;4.30;;
76117;SDS011;64851;50.232;20.364;2024-01-07T14:27:34;6.10;;;3.30;;
76117;SDS011;64851;50.232;20.364;2024-01-07T14:30:29;9.30;;;4.20;;
76117;SDS011;64851;50.232;20.364;2024-01-07T14:33:24;8.50;;;4.10;;
76117;SDS011;64851;50.232;20.364;2024-01-07T14:36:19;7.60;;;4.10;;
76117;SDS011;64851;50.232;20.364;2024-01-07T14:39:01;14.40;;;7.70;;
76117;SDS011;64851;50.232;20.364;2024-01-07T14:41:42;8.30;;;3.40;;
76117;SDS011;64851;50.232;20.364;2024-01-07T14:44:24;8.90;;;4.30;;
76117;SDS011;64851;50.232;20.364;2024-01-07T14:47:29;13.00;;;5.10;;
76117;SDS011;64851;50.232;20.364;2024-01-07T14:50:04;9.40;;;4.40;;
76117;SDS011;64851;50.232;20.364;2024-01-07T14:52:58;11.10;;;3.30;;
76117;SDS011;64851;50.232;20.364;2024-01-07T14:55:34;7.00;;;2.80;;
76117;SDS011;64851;50.232;20.364;2024-01-07T14:58:22;10.10;;;4.30;;
76117;SDS011;64851;50.232;20.364;2024-01-07T15:00:58;9.50;;;3.50;;
76117;SDS011;64851;50.232;20.364;2024-01-07T15:03:46;20.80;;;9.20;;
76117;SDS011;64851;50.232;20.364;2024-01-07T15:06:22;10.60;;;3.80;;
76117;SDS011;64851;50.232;20.364;2024-01-07T15:09:10;5.50;;;2.40;;
76117;SDS011;64851;50.232;20.364;2024-01-07T15:11:46;6.50;;;2.90;;
76117;SDS011;64851;50.232;20.364;2024-01-07T15:14:40;5.60;;;3.10;;
76117;SDS011;64851;50.232;20.364;2024-01-07T15:17:35;7.90;;;4.20;;
76117;SDS011;64851;50.232;20.364;2024-01-07T15:20:11;8.90;;;3.90;;
76117;SDS011;64851;50.232;20.364;2024-01-07T15:23:01;8.40;;;3.70;;
76117;SDS011;64851;50.232;20.364;2024-01-07T15:25:37;4.60;;;2.10;;
76117;SDS011;64851;50.232;20.364;2024-01-07T15:28:28;6.30;;;3.00;;
76117;SDS011;64851;50.232;20.364;2024-01-07T15:31:03;11.60;;;4.40;;
76117;SDS011;64851;50.232;20.364;2024-01-07T15:33:54;11.00;;;5.20;;
76117;SDS011;64851;50.232;20.364;2024-01-07T15:36:28;7.80;;;3.90;;
76117;SDS011;64851;50.232;20.364;2024-01-07T15:39:18;8.60;;;3.00;;
76117;SDS011;64851;50.232;20.364;2024-01-07T15:41:53;8.60;;;3.10;;
76117;SDS011;64851;50.232;20.364;2024-01-07T15:44:46;12.50;;;5.90;;
76117;SDS011;64851;50.232;20.364;2024-01-07T15:47:21;9.50;;;4.20;;
76117;SDS011;64851;50.232;20.364;2024-01-07T15:50:09;13.50;;;5.70;;
76117;SDS011;64851;50.232;20.364;2024-01-07T15:52:50;8.50;;;3.70;;
76117;SDS011;64851;50.232;20.364;2024-01-07T15:55:40;11.90;;;5.20;;
76117;SDS011;64851;50.232;20.364;2024-01-07T15:58:18;10.60;;;5.80;;
76117;SDS011;64851;50.232;20.364;2024-01-07T16:01:11;6.50;;;3.30;;
76117;SDS011;64851;50.232;20.364;2024-01-07T16:03:46;7.40;;;4.20;;
76117;SDS011;64851;50.232;20.364;2024-01-07T16:06:35;8.30;;;3.50;;
76117;SDS011;64851;50.232;20.364;2024-01-07T16:09:20;10.30;;;4.40;;
76117;SDS011;64851;50.232;20.364;2024-01-07T16:12:15;13.80;;;4.10;;
76117;SDS011;64851;50.232;20.364;2024-01-07T16:14:57;8.20;;;3.20;;
76117;SDS011;64851;50.232;20.364;2024-01-07T16:17:48;9.70;;;3.20;;
76117;SDS011;64851;50.232;20.364;2024-01-07T16:20:30;9.60;;;3.70;;
76117;SDS011;64851;50.232;20.364;2024-01-07T16:23:58;14.80;;;4.40;;
76117;SDS011;64851;50.232;20.364;2024-01-07T16:29:24;7.80;;;3.40;;
76117;SDS011;64851;50.232;20.364;2024-01-07T16:32:14;10.60;;;4.50;;
76117;SDS011;64851;50.232;20.364;2024-01-07T16:35:16;8.00;;;3.80;;
76117;SDS011;64851;50.232;20.364;2024-01-07T16:38:02;9.60;;;3.90;;
76117;SDS011;64851;50.232;20.364;2024-01-07T16:45:57;10.50;;;4.20;;
76117;SDS011;64851;50.232;20.364;2024-01-07T16:48:53;4.40;;;1.80;;
76117;SDS011;64851;50.232;20.364;2024-01-07T16:52:01;6.00;;;2.70;;
76117;SDS011;64851;50.232;20.364;2024-01-07T16:54:36;8.80;;;3.40;;
76117;SDS011;64851;50.232;20.364;2024-01-07T16:57:27;11.70;;;3.70;;
76117;SDS011;64851;50.232;20.364;2024-01-07T17:00:02;8.50;;;3.40;;
76117;SDS011;64851;50.232;20.364;2024-01-07T17:02:58;4.70;;;2.50;;